createdAt,value
2024-05-09T00:09:01.575Z,37.7
2024-05-09T00:19:02.034Z,37.7
2024-05-09T00:29:03.628Z,37.9
2024-05-09T00:39:02.012Z,37.9
2024-05-09T00:49:04.092Z,38.1
2024-05-09T00:59:01.761Z,38.1
2024-05-09T01:09:04.418Z,38.3
2024-05-09T01:19:01.493Z,38.3
2024-05-09T01:29:02.229Z,38.3
2024-05-09T01:39:01.666Z,38.4
2024-05-09T01:49:02.846Z,38.6
2024-05-09T01:59:03.291Z,38.6
2024-05-09T02:09:01.814Z,38.7
2024-05-09T02:19:02.444Z,38.8
2024-05-09T02:29:05.301Z,38.9
2024-05-09T02:39:01.301Z,39.0
2024-05-09T02:49:03.912Z,39.2
2024-05-09T02:59:02.485Z,39.3
2024-05-09T03:09:01.623Z,39.5
2024-05-09T03:19:01.373Z,39.5
2024-05-09T03:29:02.364Z,39.6
2024-05-09T03:39:01.332Z,39.8
2024-05-09T03:49:02.593Z,39.9
2024-05-09T03:59:01.772Z,40.1
2024-05-09T04:09:01.683Z,40.2
2024-05-09T04:19:01.543Z,40.4
2024-05-09T04:29:04.011Z,40.5
2024-05-09T04:39:03.827Z,40.7
2024-05-09T04:49:05.200Z,40.8
2024-05-09T04:59:03.672Z,40.9
2024-05-09T05:09:03.243Z,41.2
2024-05-09T05:19:07.169Z,41.3
2024-05-09T05:29:04.948Z,41.5
2024-05-09T05:39:03.531Z,41.7
2024-05-09T05:49:03.752Z,41.8
2024-05-09T05:59:04.601Z,41.9
2024-05-09T06:09:04.404Z,42.0
2024-05-09T06:19:06.425Z,42.1
2024-05-09T06:29:03.796Z,42.3
2024-05-09T06:39:04.176Z,42.4
2024-05-09T06:49:07.431Z,42.5
2024-05-09T06:59:04.228Z,42.7
2024-05-09T07:09:03.431Z,42.9
2024-05-09T07:19:04.279Z,43.1
2024-05-09T07:29:05.966Z,43.2
2024-05-09T07:39:05.087Z,43.3
2024-05-09T07:59:05.015Z,43.4
2024-05-09T08:09:08.199Z,43.5
2024-05-09T08:19:03.839Z,43.6
2024-05-09T08:29:03.552Z,43.8
2024-05-09T08:39:04.146Z,43.8
2024-05-09T08:49:04.887Z,43.8
2024-05-09T08:59:03.769Z,43.8
2024-05-09T09:09:05.220Z,43.8
2024-05-09T09:19:05.555Z,43.8
2024-05-09T09:29:04.699Z,43.8
2024-05-09T09:39:04.606Z,43.8
2024-05-09T09:49:05.353Z,43.9
2024-05-09T09:59:05.709Z,43.9
2024-05-09T10:09:05.069Z,43.9
2024-05-09T10:19:08.840Z,43.9
2024-05-09T10:29:04.612Z,43.8
2024-05-09T10:39:05.372Z,43.9
2024-05-09T10:49:07.233Z,43.8
2024-05-09T10:59:04.432Z,43.8
2024-05-09T11:09:05.944Z,43.8
2024-05-09T11:19:06.085Z,43.8
2024-05-09T11:29:06.729Z,43.8
2024-05-09T11:39:06.576Z,43.8
2024-05-09T11:49:06.368Z,43.7
2024-05-09T11:59:15.772Z,43.7
2024-05-09T12:09:07.091Z,43.6
2024-05-09T12:19:08.804Z,43.7
2024-05-09T12:29:06.895Z,43.6
2024-05-09T12:39:07.530Z,43.6
2024-05-09T12:49:08.506Z,43.5
2024-05-09T12:59:07.204Z,43.5
2024-05-09T13:09:06.958Z,43.5
2024-05-09T13:19:07.753Z,43.6
2024-05-09T13:29:07.450Z,43.8
2024-05-09T13:39:06.967Z,43.7
2024-05-09T13:59:08.736Z,44.3
2024-05-09T14:09:06.592Z,45.6
2024-05-09T14:19:09.377Z,45.9
2024-05-09T14:29:07.560Z,46.0
2024-05-09T14:39:11.599Z,46.1
2024-05-09T14:49:08.589Z,46.2
2024-05-09T14:59:08.090Z,46.3
2024-05-09T15:09:06.836Z,46.4
2024-05-09T15:19:07.893Z,46.6
2024-05-09T15:29:08.951Z,46.7
2024-05-09T15:39:07.398Z,46.9
2024-05-09T15:49:10.502Z,47.0
2024-05-09T15:59:08.454Z,47.2
2024-05-09T16:09:07.017Z,47.4
2024-05-09T16:19:07.453Z,47.6
2024-05-09T16:29:07.366Z,47.8
2024-05-09T16:39:08.074Z,48.0
2024-05-09T16:49:08.347Z,48.2
2024-05-09T16:59:08.428Z,48.4
2024-05-09T17:09:11.766Z,48.5
2024-05-09T17:19:08.651Z,48.7
2024-05-09T17:29:12.332Z,49.0
2024-05-09T17:39:09.526Z,49.2
2024-05-09T17:49:09.153Z,49.4
2024-05-09T17:59:11.272Z,49.5
2024-05-09T18:09:09.445Z,49.7
2024-05-09T18:19:09.637Z,49.9
2024-05-09T18:29:08.474Z,50.1
2024-05-09T18:39:09.263Z,50.2
2024-05-09T18:49:11.072Z,50.4
2024-05-09T18:59:09.168Z,50.5
2024-05-09T19:09:08.934Z,50.6
2024-05-09T19:19:09.144Z,50.7
2024-05-09T19:29:08.966Z,50.8
2024-05-09T19:39:09.255Z,51.0
2024-05-09T19:49:10.709Z,51.1
2024-05-09T19:59:08.960Z,51.2
2024-05-09T20:09:10.844Z,51.2
2024-05-09T20:19:10.122Z,51.3
2024-05-09T20:29:12.676Z,51.4
2024-05-09T20:39:11.070Z,51.5
2024-05-09T20:49:09.145Z,51.5
2024-05-09T20:59:11.376Z,51.5
2024-05-09T21:09:11.347Z,51.7
2024-05-09T21:19:10.361Z,51.7
2024-05-09T21:29:10.690Z,51.8
2024-05-09T21:39:09.419Z,51.9
2024-05-09T21:49:09.550Z,52.0
2024-05-09T21:59:09.436Z,52.0
2024-05-09T22:09:10.497Z,52.1
2024-05-09T22:19:10.322Z,52.1
2024-05-09T22:29:09.358Z,52.2
2024-05-09T22:39:11.434Z,52.3
2024-05-09T22:49:10.697Z,52.4
2024-05-09T22:59:11.215Z,52.4
2024-05-09T23:09:10.736Z,52.5
2024-05-09T23:19:12.953Z,52.7
2024-05-09T23:29:09.809Z,52.8
2024-05-09T23:39:12.139Z,52.9
2024-05-09T23:49:10.953Z,52.9
2024-05-09T23:59:09.538Z,53.0
